Aviation Digital Data Service (ADDS)

Output produced by METARs form (1127 UTC 19 June 2019)
found at http://www.aviationweather.gov/metar/data/
 
TAF SABE 191100Z 1912/2012 29010KT CAVOK TX16/1918Z TN08/2010Z 
     BECMG 1914/1917 27015KT 9999 SCT030 
     BECMG 2000/2003 23010KT CAVOK
       
TAF SACO 191100Z 1912/2012 32010KT CAVOK TX19/1918Z TN02/2010Z 
     BECMG 1913/1915 02010KT 
     BECMG 2005/2007 34005KT
       
TAF SARI 191100Z 1912/2012 20005KT 5000 BR SCT005 OVC100 TX20/1918Z TN08/2010Z 
     BECMG 1914/1916 14005KT 9999 SCT025 BKN060 
     PROB30 1916/1921 7000 RA BR BKN020 OVC050 
     BECMG 2003/2005 VRB03KT 3000 BR NSC 
     PROB30 2008/2011 00000KT 0500 FG BKN008
       
TAF SAVC 190500Z 1906/2006 27010KT CAVOK TX14/1918Z TN04/2006Z 
     BECMG 1914/1916 30020KT 
     BECMG 1918/1921 30020G35KT 
     BECMG 2002/2005 30010KT
       
TAF SAME 191100Z 1912/2012 VRB03KT CAVOK TX16/1920Z TN01/2011Z
       
TAF SARF 191100Z 1912/2012 18005KT 9999 SCT010 BKN020 TX19/1918Z TN10/2010Z 
     BECMG 1914/1916 CAVOK 
     PROB40 2008/2011 4000 BR BKN010
       
TAF SASJ 191100Z 1912/2012 27005KT CAVOK TX21/1918Z TN02/2011Z 
     BECMG 1913/1915 09005KT 
     BECMG 2005/2007 27005KT
       
TAF SASA 191100Z 1912/2012 VRB03KT CAVOK TX20/1918Z TN01/2011Z 
     BECMG 1913/1915 18005KT 
     BECMG 1918/1920 02005KT
       
TAF SASA 191100Z 1912/2012 VRB03KT CAVOK TX20/1918Z TN01/2011Z 
     BECMG 1913/1915 18005KT 
     BECMG 1918/1920 02005KT
       
TAF SAZM 190500Z 1906/2006 32020KT 4000 -RA OVC008 TX13/1918Z TN06/1910Z 
     TEMPO 1907/1912 25025G45KT 5000 RABR 0VC008 
     BECMG 1915/1919 25020KT 8000 -DZ BKN020 
     BECMG 1920/1923 25015KT 9999 BKN025
       
TAF AMD SAEZ 190800Z 1908/2006 30015G25KT 9999 BKN025 TX15/1918Z TN08/2006Z 
     BECMG 1915/1917 26015G20KT CAVOK 
     BECMG 1918/1920 25010KT
       
TAF SARP 191100Z 1912/2012 16010KT 9999 SCT008 BKN100 TX20/1918Z TN10/2010Z 
     BECMG 1914/1916 9999 SCT015 SCT100 
     BECMG 1918/1920 CAVOK
       
TAF SAZN 191100Z 1912/2012 25015KT CAVOK TX14/1918Z TN04/2011Z 
     BECMG 1914/1917 27010KT 
     BECMG 1922/2001 VRB03KT 
     BECMG 2007/2010 09005KT 9999 FEW035
       
TAF SARE 191100Z 1912/2012 18005KT CAVOK TX18/1918Z TN08/2010Z 
     PROB40 2008/2011 VRB03KT 4000 BR NSC
       
TAF SAWG 190500Z 1906/2006 29010KT CAVOK TX07/1918Z TN01/1911Z 
     BECMG 1916/1918 SCT030
       
TAF SAWE 190500Z 1906/2006 29020KT 9999 SCT020 SCT090 TX06/1918Z TNM02/2006Z 
     BECMG 1921/1923 27025G35KT CAVOK
       
TAF SAAR 191100Z 1912/2012 27015KT 9999 SCT030 TX16/1918Z TN04/2010Z 
     BECMG 1920/2023 27005KT CAVOK 
     PROB40 
     TEMPO 2006/2011 5000 BR NSC
       
TAF SASA 191100Z 1912/2012 VRB03KT CAVOK TX20/1918Z TN01/2011Z 
     BECMG 1913/1915 18005KT 
     BECMG 1918/1920 02005KT
       
TAF SASA 191100Z 1912/2012 VRB03KT CAVOK TX20/1918Z TN01/2011Z 
     BECMG 1913/1915 18005KT 
     BECMG 1918/1920 02005KT
       
TAF SAZS 191100Z 1912/2012 30020KT 9999 FEW020 SCT030 TX10/1918Z TN00/2011Z 
     BECMG 1915/1918 30010KT FEW040 
     BECMG 1921/1924 VRB03KT 
     BECMG 2003/2006 15010KT 9999 FEW025
       
TAF SADF 190500Z 1906/2006 29015KT CAVOK TX15/1918Z TN08/1910Z 
     TEMPO 1907/1913 27015G25KT 
     BECMG 1913/1915 25015KT CAVOK
       
TAF SANT 191100Z 1912/2012 36010KT CAVOK TX21/1918Z TN04/2011Z 
     BECMG 1915/1918 09010KT 
     BECMG 2005/2007 27005KT
       
TAF SAWH 190500Z 1906/2006 30010KT 9999 BKN030 TX05/1906Z TNM04/2006Z 
     BECMG 1916/1918 23020KT -SN BKN020 
     PROB40 
     TEMPO 1918/1922 5000 SN SCT010 OVC020 
     BECMG 1922/1924 23020G30KT 5000 SN SCT008 OVC020